createdAt,value
2019-05-29T00:00:35.254Z,0.00
2019-05-29T00:01:35.241Z,0.00
2019-05-29T00:02:35.239Z,0.00
2019-05-29T00:03:35.231Z,0.00
2019-05-29T00:04:35.226Z,0.00
2019-05-29T00:05:35.221Z,0.00
2019-05-29T00:06:35.212Z,0.00
2019-05-29T00:07:35.205Z,0.00
2019-05-29T00:08:35.191Z,0.00
2019-05-29T00:09:35.188Z,0.00
2019-05-29T00:10:35.181Z,0.00
2019-05-29T00:11:35.174Z,0.00
2019-05-29T00:12:35.174Z,0.00
2019-05-29T00:13:35.167Z,0.00
2019-05-29T00:14:35.154Z,0.00
2019-05-29T00:15:35.147Z,0.00
2019-05-29T00:16:35.144Z,0.00
2019-05-29T00:17:35.141Z,0.00
2019-05-29T00:18:35.129Z,0.00
2019-05-29T00:19:35.120Z,0.00
2019-05-29T00:20:35.110Z,0.00
2019-05-29T00:21:35.102Z,0.00
2019-05-29T00:22:35.094Z,0.00
2019-05-29T00:23:35.087Z,0.00
2019-05-29T00:24:35.086Z,0.00
2019-05-29T00:25:35.078Z,0.00
2019-05-29T00:26:35.074Z,0.00
2019-05-29T00:27:35.067Z,0.00
2019-05-29T00:28:35.055Z,0.00
2019-05-29T00:29:35.046Z,0.00
2019-05-29T00:30:35.046Z,0.00
2019-05-29T00:31:35.040Z,0.00
2019-05-29T00:32:35.053Z,0.00
2019-05-29T00:33:35.019Z,0.00
2019-05-29T00:34:35.008Z,0.00
2019-05-29T00:35:35.004Z,0.00
2019-05-29T00:36:34.998Z,0.00
2019-05-29T00:37:34.992Z,0.00
2019-05-29T00:38:34.986Z,0.00
2019-05-29T00:39:34.976Z,0.00
2019-05-29T00:40:34.966Z,0.00
2019-05-29T00:41:34.959Z,0.00
2019-05-29T00:42:34.954Z,0.00
2019-05-29T00:43:34.947Z,0.00
2019-05-29T00:44:34.942Z,0.00
2019-05-29T00:45:34.937Z,0.00
2019-05-29T00:46:34.924Z,0.00
2019-05-29T00:47:34.917Z,0.00
2019-05-29T00:48:34.918Z,0.00
2019-05-29T00:49:34.906Z,0.00
2019-05-29T00:50:35.065Z,0.00
2019-05-29T00:51:34.896Z,0.00
2019-05-29T00:52:34.876Z,0.00
2019-05-29T00:53:34.870Z,0.00
2019-05-29T00:54:34.864Z,0.00
2019-05-29T00:55:34.856Z,0.00
2019-05-29T00:56:34.852Z,0.00
2019-05-29T00:57:34.847Z,0.00
2019-05-29T00:58:34.842Z,0.00
2019-05-29T00:59:34.833Z,0.00
2019-05-29T01:00:34.822Z,0.00
2019-05-29T01:01:34.820Z,0.00
2019-05-29T01:02:34.829Z,0.00
2019-05-29T01:03:34.804Z,0.00
2019-05-29T01:04:34.792Z,0.00
2019-05-29T01:05:34.784Z,0.00
2019-05-29T01:06:34.775Z,0.00
2019-05-29T01:07:34.769Z,0.00
2019-05-29T01:08:34.764Z,0.00
2019-05-29T01:09:34.757Z,0.00
2019-05-29T01:10:34.753Z,0.00
2019-05-29T01:11:34.744Z,0.00
2019-05-29T01:12:34.736Z,0.00
2019-05-29T01:13:34.726Z,0.00
2019-05-29T01:14:49.268Z,0.00
2019-05-29T01:15:34.705Z,0.00
2019-05-29T01:16:34.705Z,0.00
2019-05-29T01:17:34.696Z,0.00
2019-05-29T01:18:34.685Z,0.00
2019-05-29T01:19:34.678Z,0.00
2019-05-29T01:20:34.674Z,0.00
2019-05-29T01:21:34.669Z,0.00
2019-05-29T01:22:34.663Z,0.00
2019-05-29T01:23:34.651Z,0.00
2019-05-29T01:24:34.644Z,0.00
2019-05-29T01:25:34.634Z,0.00
2019-05-29T01:26:34.635Z,0.00
2019-05-29T01:27:34.619Z,0.00
2019-05-29T01:28:34.615Z,0.00
2019-05-29T01:29:34.606Z,0.00
2019-05-29T01:30:34.599Z,0.00
2019-05-29T01:31:34.590Z,0.00
2019-05-29T01:32:34.576Z,0.00
2019-05-29T01:33:34.571Z,0.00
2019-05-29T01:34:34.568Z,0.00
2019-05-29T01:35:34.558Z,0.00
2019-05-29T01:36:34.548Z,0.00
2019-05-29T01:37:34.546Z,0.00
2019-05-29T01:38:34.535Z,0.00
2019-05-29T01:39:34.545Z,0.00
2019-05-29T01:40:34.523Z,0.00
2019-05-29T01:41:34.516Z,0.00
2019-05-29T01:42:34.509Z,0.00
2019-05-29T01:43:34.502Z,0.00
2019-05-29T01:44:34.490Z,0.00
2019-05-29T01:45:34.481Z,0.00
2019-05-29T01:46:34.470Z,0.00
2019-05-29T01:47:34.461Z,0.00
2019-05-29T01:48:34.457Z,0.00
2019-05-29T01:49:34.451Z,0.00
2019-05-29T01:50:34.443Z,0.00
2019-05-29T01:51:34.429Z,0.00
2019-05-29T01:52:34.428Z,0.00
2019-05-29T01:53:34.420Z,0.00
2019-05-29T01:54:34.412Z,0.00
2019-05-29T01:55:34.404Z,0.00
2019-05-29T01:56:34.393Z,0.00
2019-05-29T01:57:34.386Z,0.00
2019-05-29T01:58:34.378Z,0.00
2019-05-29T01:59:34.372Z,0.00
2019-05-29T02:00:34.366Z,0.00
2019-05-29T02:01:34.358Z,0.00
2019-05-29T02:02:34.349Z,0.00
2019-05-29T02:03:34.337Z,0.00
2019-05-29T02:04:34.328Z,0.00
2019-05-29T02:05:34.318Z,0.00
2019-05-29T02:06:34.316Z,0.00
2019-05-29T02:07:34.308Z,0.00
2019-05-29T02:08:34.294Z,0.00
2019-05-29T02:09:34.287Z,0.00
2019-05-29T02:10:34.283Z,0.00
2019-05-29T02:11:34.271Z,0.00
2019-05-29T02:12:34.270Z,0.00
2019-05-29T02:13:34.259Z,0.00
2019-05-29T02:14:34.260Z,0.00
2019-05-29T02:15:34.279Z,0.00
2019-05-29T02:16:34.232Z,0.00
2019-05-29T02:17:34.228Z,0.00
2019-05-29T02:18:34.218Z,0.00
2019-05-29T02:19:34.205Z,0.00
2019-05-29T02:20:34.202Z,0.00
2019-05-29T02:21:34.194Z,0.00
2019-05-29T02:22:34.181Z,0.00
2019-05-29T02:23:34.173Z,0.00
2019-05-29T02:24:34.168Z,0.00
2019-05-29T02:25:34.164Z,0.00
2019-05-29T02:26:34.155Z,0.00
2019-05-29T02:27:34.145Z,0.00
2019-05-29T02:28:34.136Z,0.00
2019-05-29T02:29:34.126Z,0.00
2019-05-29T02:30:34.121Z,0.00
2019-05-29T02:31:34.111Z,0.00
2019-05-29T02:32:34.109Z,0.00
2019-05-29T02:33:34.100Z,0.00
2019-05-29T02:34:34.090Z,0.00
2019-05-29T02:35:34.078Z,0.00
2019-05-29T02:36:34.067Z,0.00
2019-05-29T02:37:34.060Z,0.00
2019-05-29T02:38:34.057Z,0.00
2019-05-29T02:39:34.046Z,0.00
2019-05-29T02:40:34.042Z,0.00
2019-05-29T02:41:34.026Z,0.00
2019-05-29T02:42:34.021Z,0.00
2019-05-29T02:43:34.012Z,0.00
2019-05-29T02:44:34.013Z,0.00
2019-05-29T02:45:53.192Z,4.00
2019-05-29T02:46:33.991Z,4.00
2019-05-29T02:47:33.981Z,4.00
2019-05-29T02:48:33.969Z,0.00
2019-05-29T02:49:33.960Z,4.00
2019-05-29T02:50:33.952Z,4.00
2019-05-29T02:51:33.943Z,4.00
2019-05-29T02:52:33.939Z,8.00
2019-05-29T02:53:33.932Z,4.00
2019-05-29T02:54:33.918Z,8.00
2019-05-29T02:55:33.908Z,4.00
2019-05-29T02:56:33.906Z,8.00
2019-05-29T02:57:33.900Z,8.00
2019-05-29T02:58:33.900Z,8.00
2019-05-29T02:59:33.887Z,12.00
2019-05-29T03:00:33.867Z,12.00
2019-05-29T03:01:33.862Z,16.00
2019-05-29T03:02:33.853Z,20.00
2019-05-29T03:03:39.422Z,20.00
2019-05-29T03:04:33.839Z,24.00
2019-05-29T03:05:33.831Z,28.00
2019-05-29T03:06:33.823Z,28.00
2019-05-29T03:07:33.811Z,32.00
2019-05-29T03:08:34.432Z,36.00
2019-05-29T03:09:33.789Z,40.00
2019-05-29T03:10:33.786Z,44.00
2019-05-29T03:11:33.780Z,52.00
2019-05-29T03:12:33.900Z,56.00
2019-05-29T03:13:33.888Z,60.00
2019-05-29T03:14:34.699Z,72.00
2019-05-29T03:15:33.939Z,76.00
2019-05-29T03:16:34.896Z,88.00
2019-05-29T03:17:33.937Z,96.00
2019-05-29T03:18:35.028Z,100.00
2019-05-29T03:19:34.761Z,112.00
2019-05-29T03:20:34.549Z,124.00
2019-05-29T03:21:34.784Z,136.00
2019-05-29T03:22:35.142Z,148.00
2019-05-29T03:23:35.946Z,160.00
2019-05-29T03:24:35.128Z,176.00
2019-05-29T03:25:35.163Z,192.00
2019-05-29T03:26:35.112Z,204.00
2019-05-29T03:27:34.031Z,220.00
2019-05-29T03:28:35.105Z,240.00
2019-05-29T03:29:34.314Z,256.00
2019-05-29T03:30:41.383Z,276.00
2019-05-29T03:31:39.583Z,292.00
2019-05-29T03:32:42.246Z,316.00
2019-05-29T03:33:40.845Z,336.00
2019-05-29T03:34:39.269Z,360.00
2019-05-29T03:35:43.944Z,384.00
2019-05-29T03:36:39.548Z,404.00
2019-05-29T03:37:34.465Z,432.00
2019-05-29T03:38:34.963Z,456.00
2019-05-29T03:39:34.612Z,480.00
2019-05-29T03:40:35.122Z,504.00
2019-05-29T03:41:34.874Z,532.00
2019-05-29T03:42:34.474Z,560.00
2019-05-29T03:43:35.788Z,584.00
2019-05-29T03:44:35.348Z,616.00
2019-05-29T03:45:35.718Z,644.00
2019-05-29T03:46:41.185Z,672.00
2019-05-29T03:47:34.955Z,704.00
2019-05-29T03:48:34.376Z,732.00
2019-05-29T03:49:35.019Z,764.00
2019-05-29T03:50:34.947Z,800.00
2019-05-29T03:51:35.077Z,828.00
2019-05-29T03:52:34.724Z,864.00
2019-05-29T03:53:34.262Z,896.00
2019-05-29T03:54:35.317Z,928.00
2019-05-29T03:55:33.713Z,960.00
2019-05-29T03:56:34.780Z,992.00
2019-05-29T03:57:33.849Z,1024.00
2019-05-29T03:58:34.848Z,1060.00
2019-05-29T03:59:35.086Z,1092.00
2019-05-29T04:00:41.706Z,1120.00
2019-05-29T04:01:35.323Z,1152.00
2019-05-29T04:02:35.266Z,1192.00
2019-05-29T04:03:35.057Z,1224.00
2019-05-29T04:04:34.117Z,1260.00
2019-05-29T04:05:33.919Z,1296.00
2019-05-29T04:06:33.487Z,1332.00
2019-05-29T04:07:34.114Z,1372.00
2019-05-29T04:08:33.642Z,1404.00
2019-05-29T04:09:33.465Z,1444.00
2019-05-29T04:10:35.576Z,1480.00
2019-05-29T04:11:33.294Z,1512.00
2019-05-29T04:12:33.506Z,1544.00
2019-05-29T04:13:34.050Z,1576.00
2019-05-29T04:14:33.522Z,1612.00
2019-05-29T04:15:33.739Z,1644.00
2019-05-29T04:16:52.441Z,1672.00
2019-05-29T04:17:33.752Z,1708.00
2019-05-29T04:18:33.876Z,1740.00
2019-05-29T04:19:34.907Z,1772.00
2019-05-29T04:20:33.590Z,1808.00
2019-05-29T04:21:34.313Z,1840.00
2019-05-29T04:22:34.319Z,1868.00
2019-05-29T04:23:34.116Z,1904.00
2019-05-29T04:24:33.973Z,1936.00
2019-05-29T04:25:35.994Z,1964.00
2019-05-29T04:26:34.015Z,2000.00
2019-05-29T04:27:34.295Z,2036.00
2019-05-29T04:28:34.865Z,2068.00
2019-05-29T04:29:34.127Z,2104.00
2019-05-29T04:30:34.302Z,2136.00
2019-05-29T04:31:34.483Z,2168.00
2019-05-29T04:32:34.179Z,2196.00
2019-05-29T04:33:34.786Z,2224.00
2019-05-29T04:34:34.267Z,2260.00
2019-05-29T04:35:34.472Z,2296.00
2019-05-29T04:36:34.748Z,2328.00
2019-05-29T04:37:34.316Z,2364.00
2019-05-29T04:38:33.910Z,2404.00
2019-05-29T04:39:34.384Z,2444.00
2019-05-29T04:40:34.800Z,2488.00
2019-05-29T04:41:34.624Z,2532.00
2019-05-29T04:42:34.009Z,2576.00
2019-05-29T04:43:33.785Z,2616.00
2019-05-29T04:44:33.895Z,2672.00
2019-05-29T04:45:33.511Z,2804.00
2019-05-29T04:46:34.026Z,3104.00
2019-05-29T04:47:33.362Z,4900.00
2019-05-29T04:48:34.067Z,8960.00
2019-05-29T04:49:33.720Z,12208.00
2019-05-29T04:50:33.465Z,12940.00
2019-05-29T04:51:33.161Z,13440.00
2019-05-29T04:52:33.817Z,14080.00
2019-05-29T04:53:33.542Z,14560.00
2019-05-29T04:54:33.316Z,15008.00
2019-05-29T04:55:32.900Z,15424.00
2019-05-29T04:56:32.891Z,15872.00
2019-05-29T04:57:32.930Z,16224.00
2019-05-29T04:58:32.897Z,16640.00
2019-05-29T04:59:33.098Z,16992.00
2019-05-29T05:00:33.151Z,17344.00
2019-05-29T05:01:33.120Z,17664.00
2019-05-29T05:02:33.102Z,17888.00
2019-05-29T05:03:33.227Z,18240.00
2019-05-29T05:04:33.215Z,18560.00
2019-05-29T05:05:33.235Z,18880.00
2019-05-29T05:06:33.229Z,19168.00
2019-05-29T05:07:33.214Z,19424.00
2019-05-29T05:08:33.367Z,19648.00
2019-05-29T05:09:33.382Z,20000.00
2019-05-29T05:10:33.391Z,20256.00
2019-05-29T05:11:33.356Z,20512.00
2019-05-29T05:12:33.622Z,20768.00
2019-05-29T05:13:33.452Z,20992.00
2019-05-29T05:14:33.593Z,21248.00
2019-05-29T05:15:33.647Z,21504.00
2019-05-29T05:16:33.680Z,21728.00
2019-05-29T05:17:33.766Z,21952.00
2019-05-29T05:18:33.788Z,22240.00
2019-05-29T05:19:33.902Z,22432.00
2019-05-29T05:20:33.939Z,22688.00
2019-05-29T05:21:33.930Z,22912.00
2019-05-29T05:22:34.175Z,23136.00
2019-05-29T05:23:33.968Z,23360.00
2019-05-29T05:24:34.083Z,23584.00
2019-05-29T05:25:34.069Z,23808.00
2019-05-29T05:26:32.793Z,23968.00
2019-05-29T05:27:32.791Z,24160.00
2019-05-29T05:28:32.786Z,24352.00
2019-05-29T05:29:32.791Z,24544.00
2019-05-29T05:30:32.791Z,24736.00
2019-05-29T05:31:32.792Z,24928.00
2019-05-29T05:32:32.797Z,25120.00
2019-05-29T05:33:32.798Z,25312.00
2019-05-29T05:34:32.800Z,25504.00
2019-05-29T05:35:32.798Z,25696.00
2019-05-29T05:36:32.803Z,25856.00
2019-05-29T05:37:32.806Z,26048.00
2019-05-29T05:38:32.804Z,26272.00
2019-05-29T05:39:32.867Z,26400.00
2019-05-29T05:40:35.979Z,26560.00
2019-05-29T05:41:32.809Z,26720.00
2019-05-29T05:42:32.931Z,26816.00
2019-05-29T05:43:32.918Z,27040.00
2019-05-29T05:44:32.892Z,27200.00
2019-05-29T05:45:33.030Z,27360.00
2019-05-29T05:46:32.973Z,27584.00
2019-05-29T05:47:45.086Z,27712.00
2019-05-29T05:48:33.038Z,27872.00
2019-05-29T05:49:33.241Z,28032.00
2019-05-29T05:50:33.315Z,28160.00
2019-05-29T05:51:33.491Z,28256.00
2019-05-29T05:52:33.765Z,28384.00
2019-05-29T05:53:33.391Z,28512.00
2019-05-29T05:54:33.373Z,28544.00
2019-05-29T05:55:33.502Z,28672.00
2019-05-29T05:56:33.653Z,28864.00
2019-05-29T05:57:33.550Z,29024.00
2019-05-29T05:58:33.800Z,29184.00
2019-05-29T05:59:33.601Z,29216.00
2019-05-29T06:00:33.983Z,29312.00
2019-05-29T06:01:33.803Z,29504.00
2019-05-29T06:02:33.760Z,29664.00
2019-05-29T06:03:33.932Z,29632.00
2019-05-29T06:04:33.815Z,29760.00
2019-05-29T06:05:33.979Z,30016.00
2019-05-29T06:06:33.939Z,29984.00
2019-05-29T06:07:34.068Z,30176.00
2019-05-29T06:08:34.007Z,30336.00
2019-05-29T06:09:34.125Z,30432.00
2019-05-29T06:10:33.944Z,30656.00
2019-05-29T06:11:34.099Z,30816.00
2019-05-29T06:12:34.351Z,30944.00
2019-05-29T06:13:34.111Z,31040.00
2019-05-29T06:14:32.944Z,31232.00
2019-05-29T06:15:32.950Z,31168.00
2019-05-29T06:16:33.025Z,31328.00
2019-05-29T06:17:32.966Z,31552.00
2019-05-29T06:18:32.975Z,31616.00
2019-05-29T06:19:32.982Z,31712.00
2019-05-29T06:20:32.984Z,31840.00
2019-05-29T06:21:32.992Z,31968.00
2019-05-29T06:22:33.003Z,32032.00
2019-05-29T06:23:33.005Z,32224.00
2019-05-29T06:24:33.461Z,32192.00
2019-05-29T06:25:33.789Z,32352.00
2019-05-29T06:26:33.017Z,32416.00
2019-05-29T06:27:33.746Z,32512.00
2019-05-29T06:28:33.110Z,32576.00
2019-05-29T06:29:33.478Z,32768.00
2019-05-29T06:30:34.008Z,32960.00
2019-05-29T06:31:33.349Z,32992.00
2019-05-29T06:32:33.481Z,33152.00
2019-05-29T06:33:33.421Z,33344.00
2019-05-29T06:34:33.491Z,33568.00
2019-05-29T06:35:34.124Z,33536.00
2019-05-29T06:36:33.429Z,33792.00
2019-05-29T06:37:33.638Z,33984.00
2019-05-29T06:38:33.597Z,34176.00
2019-05-29T06:39:33.473Z,34336.00
2019-05-29T06:40:33.966Z,34496.00
2019-05-29T06:41:33.635Z,34624.00
2019-05-29T06:42:33.584Z,34784.00
2019-05-29T06:43:33.815Z,34784.00
2019-05-29T06:44:34.264Z,35008.00
2019-05-29T06:45:33.759Z,35136.00
2019-05-29T06:46:34.333Z,35360.00
2019-05-29T06:47:34.226Z,35424.00
2019-05-29T06:48:50.128Z,35648.00
2019-05-29T06:49:33.904Z,35808.00
2019-05-29T06:50:33.178Z,35936.00
2019-05-29T06:51:33.184Z,36128.00
2019-05-29T06:52:33.197Z,36416.00
2019-05-29T06:53:33.204Z,36928.00
2019-05-29T06:54:33.208Z,37312.00
2019-05-29T06:55:33.213Z,37504.00
2019-05-29T06:56:33.225Z,37792.00
2019-05-29T06:57:33.236Z,38368.00
2019-05-29T06:58:33.265Z,39168.00
2019-05-29T06:59:33.249Z,39936.00
2019-05-29T07:00:35.695Z,40960.00
2019-05-29T07:01:33.262Z,42560.00
2019-05-29T07:02:33.271Z,44608.00
2019-05-29T07:03:33.283Z,48384.00
2019-05-29T07:04:33.294Z,54112.00
2019-05-29T07:05:33.298Z,61184.00
2019-05-29T07:06:33.303Z,69696.00
2019-05-29T07:07:33.312Z,75552.00
2019-05-29T07:08:38.839Z,75040.00
2019-05-29T07:09:33.321Z,71296.00
2019-05-29T07:10:33.370Z,68640.00
2019-05-29T07:11:33.342Z,66912.00
2019-05-29T07:12:33.345Z,65568.00
2019-05-29T07:13:35.225Z,67872.00
2019-05-29T07:14:33.363Z,72064.00
2019-05-29T07:15:33.372Z,75136.00
2019-05-29T07:16:43.846Z,77792.00
2019-05-29T07:17:33.392Z,84576.00
2019-05-29T07:18:33.406Z,89952.00
2019-05-29T07:19:47.589Z,83392.00
2019-05-29T07:20:33.413Z,82304.00
2019-05-29T07:21:33.425Z,87552.00
2019-05-29T07:22:33.428Z,95520.00
2019-05-29T07:23:33.439Z,98752.00
2019-05-29T07:24:33.450Z,96384.00
2019-05-29T07:25:33.459Z,94720.00
2019-05-29T07:26:33.569Z,94752.00
2019-05-29T07:27:33.474Z,97344.00
2019-05-29T07:28:33.489Z,92768.00
2019-05-29T07:29:33.496Z,92800.00
2019-05-29T07:30:33.514Z,107680.00
2019-05-29T07:31:33.517Z,115456.00
2019-05-29T07:32:33.524Z,103104.00
2019-05-29T07:33:33.534Z,95232.00
2019-05-29T07:34:49.682Z,91520.00
2019-05-29T07:35:33.549Z,93344.00
2019-05-29T07:36:33.575Z,92512.00
2019-05-29T07:37:33.576Z,87040.00
2019-05-29T07:38:33.586Z,82464.00
2019-05-29T07:39:33.595Z,84064.00
2019-05-29T07:40:35.893Z,79584.00
2019-05-29T07:41:33.614Z,75168.00
2019-05-29T07:42:33.627Z,75584.00
2019-05-29T07:43:33.636Z,79936.00
2019-05-29T07:44:33.643Z,78752.00
2019-05-29T07:45:33.656Z,73824.00
2019-05-29T07:46:33.668Z,72800.00
2019-05-29T07:47:33.674Z,74784.00
2019-05-29T07:48:33.688Z,78624.00
2019-05-29T07:49:39.133Z,80832.00
2019-05-29T07:50:33.712Z,70464.00
2019-05-29T07:51:33.724Z,61600.00
2019-05-29T07:52:33.731Z,62432.00
2019-05-29T07:53:33.849Z,65920.00
2019-05-29T07:54:33.761Z,66528.00
2019-05-29T07:55:33.771Z,65024.00
2019-05-29T07:56:33.788Z,64384.00
2019-05-29T07:57:33.800Z,64448.00
2019-05-29T07:58:33.808Z,65824.00
2019-05-29T07:59:33.820Z,66592.00
2019-05-29T08:00:36.160Z,67104.00
2019-05-29T08:01:33.848Z,65248.00
2019-05-29T08:02:33.859Z,64128.00
2019-05-29T08:03:33.870Z,63360.00
2019-05-29T08:04:33.879Z,60928.00
2019-05-29T08:05:33.893Z,58816.00
2019-05-29T08:06:33.907Z,61696.00
2019-05-29T08:07:33.916Z,62432.00
2019-05-29T08:08:33.934Z,61504.00
2019-05-29T08:09:33.946Z,60992.00
2019-05-29T08:10:33.964Z,59808.00
2019-05-29T08:11:33.975Z,58336.00
2019-05-29T08:12:34.068Z,59488.00
2019-05-29T08:13:33.998Z,59712.00
2019-05-29T08:14:34.016Z,60960.00
2019-05-29T08:15:34.028Z,61888.00
2019-05-29T08:16:34.036Z,61664.00
2019-05-29T08:17:34.052Z,58880.00
2019-05-29T08:18:34.064Z,58496.00
2019-05-29T08:19:34.075Z,59232.00
2019-05-29T08:20:34.094Z,60768.00
2019-05-29T08:21:34.111Z,59872.00
2019-05-29T08:22:34.848Z,59904.00
2019-05-29T08:23:34.134Z,59808.00
2019-05-29T08:24:34.145Z,60800.00
2019-05-29T08:25:34.159Z,60672.00
2019-05-29T08:26:34.177Z,60928.00
2019-05-29T08:27:34.193Z,63808.00
2019-05-29T08:28:34.216Z,68128.00
2019-05-29T08:29:34.226Z,64576.00
2019-05-29T08:30:34.238Z,60992.00
2019-05-29T08:31:34.251Z,59328.00
2019-05-29T08:32:34.278Z,60800.00
2019-05-29T08:33:34.287Z,64160.00
2019-05-29T08:34:34.302Z,65536.00
2019-05-29T08:35:34.319Z,64992.00
2019-05-29T08:36:34.327Z,67520.00
2019-05-29T08:37:34.347Z,69472.00
2019-05-29T08:38:34.364Z,66784.00
2019-05-29T08:39:36.867Z,65056.00
2019-05-29T08:40:34.401Z,66272.00
2019-05-29T08:41:34.420Z,70496.00
2019-05-29T08:42:34.437Z,77184.00
2019-05-29T08:43:34.457Z,82464.00
2019-05-29T08:44:34.467Z,80480.00
2019-05-29T08:45:34.496Z,72064.00
2019-05-29T08:46:34.510Z,67040.00
2019-05-29T08:47:34.526Z,64736.00
2019-05-29T08:48:34.595Z,63072.00
2019-05-29T08:49:34.558Z,62592.00
2019-05-29T08:50:34.579Z,62400.00
2019-05-29T08:51:34.597Z,62016.00
2019-05-29T08:52:34.619Z,61312.00
2019-05-29T08:53:34.643Z,61056.00
2019-05-29T08:54:34.657Z,60896.00
2019-05-29T08:55:34.674Z,61120.00
2019-05-29T08:56:34.692Z,61536.00
2019-05-29T08:57:34.711Z,61600.00
2019-05-29T08:58:37.233Z,61728.00
2019-05-29T08:59:34.743Z,62176.00
2019-05-29T09:00:34.768Z,62944.00
2019-05-29T09:01:34.786Z,63232.00
2019-05-29T09:02:34.805Z,63648.00
2019-05-29T09:03:34.823Z,64864.00
2019-05-29T09:04:34.848Z,65248.00
2019-05-29T09:05:34.865Z,65792.00
2019-05-29T09:06:34.888Z,65184.00
2019-05-29T09:07:34.904Z,65280.00
2019-05-29T09:08:34.921Z,64960.00
2019-05-29T09:09:34.941Z,64864.00
2019-05-29T09:10:34.961Z,65312.00
2019-05-29T09:11:34.980Z,66208.00
2019-05-29T09:12:35.000Z,67552.00
2019-05-29T09:13:35.019Z,67168.00
2019-05-29T09:14:35.039Z,66368.00
2019-05-29T09:15:35.059Z,66368.00
2019-05-29T09:16:35.070Z,66400.00
2019-05-29T09:17:35.090Z,66976.00
2019-05-29T09:18:35.112Z,68416.00
2019-05-29T09:19:35.126Z,67104.00
2019-05-29T09:20:57.735Z,67392.00
2019-05-29T09:21:35.159Z,67520.00
2019-05-29T09:22:35.180Z,67616.00
2019-05-29T09:23:35.217Z,67936.00
2019-05-29T09:24:35.220Z,67232.00
2019-05-29T09:25:35.238Z,66848.00
2019-05-29T09:26:35.256Z,65728.00
2019-05-29T09:27:35.275Z,65376.00
2019-05-29T09:28:35.291Z,64864.00
2019-05-29T09:29:35.310Z,65632.00
2019-05-29T09:30:35.327Z,65856.00
2019-05-29T09:31:35.343Z,63264.00
2019-05-29T09:32:49.613Z,60704.00
2019-05-29T09:33:35.386Z,59680.00
2019-05-29T09:34:35.407Z,58848.00
2019-05-29T09:35:35.420Z,58784.00
2019-05-29T09:36:35.446Z,59104.00
2019-05-29T09:37:35.465Z,58432.00
2019-05-29T09:38:35.484Z,59392.00
2019-05-29T09:39:35.502Z,59232.00
2019-05-29T09:40:35.518Z,59328.00
2019-05-29T09:41:35.540Z,59200.00
2019-05-29T09:42:35.577Z,61312.00
2019-05-29T09:43:35.572Z,61696.00
2019-05-29T09:44:39.204Z,67840.00
2019-05-29T09:45:35.618Z,79488.00
2019-05-29T09:46:35.640Z,80672.00
2019-05-29T09:47:35.702Z,79264.00
2019-05-29T09:48:48.758Z,78496.00
2019-05-29T09:49:35.694Z,72160.00
2019-05-29T09:50:49.547Z,79808.00
2019-05-29T09:51:35.737Z,93088.00
2019-05-29T09:52:35.765Z,96160.00
2019-05-29T09:53:35.773Z,90400.00
2019-05-29T09:54:35.996Z,91520.00
2019-05-29T09:55:35.808Z,91808.00
2019-05-29T09:56:35.835Z,84128.00
2019-05-29T09:57:35.855Z,80672.00
2019-05-29T09:58:35.875Z,90624.00
2019-05-29T09:59:35.896Z,92224.00
2019-05-29T10:00:35.910Z,91808.00
2019-05-29T10:01:35.948Z,92480.00
2019-05-29T10:02:35.953Z,93568.00
2019-05-29T10:03:35.972Z,91264.00
2019-05-29T10:04:36.172Z,88704.00
2019-05-29T10:05:36.017Z,93056.00
2019-05-29T10:06:36.042Z,93504.00
2019-05-29T10:07:36.053Z,90976.00
2019-05-29T10:08:36.118Z,88864.00
2019-05-29T10:09:36.095Z,88928.00
2019-05-29T10:10:36.118Z,85824.00
2019-05-29T10:11:36.179Z,81632.00
2019-05-29T10:12:36.143Z,73568.00
2019-05-29T10:13:36.163Z,78944.00
2019-05-29T10:14:36.181Z,83584.00
2019-05-29T10:15:36.195Z,82560.00
2019-05-29T10:16:36.218Z,77376.00
2019-05-29T10:17:36.241Z,77216.00
2019-05-29T10:18:36.257Z,76736.00
2019-05-29T10:19:36.275Z,73984.00
2019-05-29T10:20:36.287Z,71712.00
2019-05-29T10:21:40.471Z,71456.00
2019-05-29T10:22:36.328Z,73856.00
2019-05-29T10:23:36.355Z,75136.00
2019-05-29T10:24:36.356Z,74016.00
2019-05-29T10:25:36.373Z,72864.00
2019-05-29T10:26:36.389Z,73248.00
2019-05-29T10:27:36.408Z,71552.00
2019-05-29T10:28:49.911Z,69600.00
2019-05-29T10:29:36.441Z,67488.00
2019-05-29T10:30:36.458Z,69440.00
2019-05-29T10:31:36.474Z,67968.00
2019-05-29T10:32:36.488Z,70016.00
2019-05-29T10:33:36.507Z,69120.00
2019-05-29T10:34:36.524Z,61472.00
2019-05-29T10:35:36.536Z,61760.00
2019-05-29T10:36:36.563Z,65408.00
2019-05-29T10:37:36.574Z,68768.00
2019-05-29T10:38:36.586Z,69120.00
2019-05-29T10:39:36.602Z,68896.00
2019-05-29T10:40:36.621Z,65920.00
2019-05-29T10:41:36.639Z,66816.00
2019-05-29T10:42:36.653Z,66080.00
2019-05-29T10:43:36.671Z,70144.00
2019-05-29T10:44:36.686Z,69856.00
2019-05-29T10:45:36.697Z,70880.00
2019-05-29T10:46:36.728Z,70240.00
2019-05-29T10:47:36.733Z,70336.00
2019-05-29T10:48:36.750Z,72480.00
2019-05-29T10:49:36.770Z,73088.00
2019-05-29T10:50:36.787Z,73184.00
2019-05-29T10:51:36.804Z,74048.00
2019-05-29T10:52:36.820Z,73920.00
2019-05-29T10:53:36.840Z,75328.00
2019-05-29T10:54:39.240Z,76480.00
2019-05-29T10:55:36.872Z,75744.00
2019-05-29T10:56:36.884Z,78304.00
2019-05-29T10:57:36.902Z,80384.00
2019-05-29T10:58:48.530Z,80832.00
2019-05-29T10:59:36.931Z,79776.00
2019-05-29T11:00:39.072Z,83296.00
2019-05-29T11:01:36.969Z,82144.00
2019-05-29T11:02:36.992Z,89024.00
2019-05-29T11:03:37.002Z,92096.00
2019-05-29T11:04:37.011Z,92608.00
2019-05-29T11:05:37.028Z,91584.00
2019-05-29T11:06:40.505Z,93376.00
2019-05-29T11:07:37.057Z,92512.00
2019-05-29T11:08:37.076Z,95808.00
2019-05-29T11:09:44.634Z,94560.00
2019-05-29T11:10:37.102Z,91200.00
2019-05-29T11:11:37.115Z,90880.00
2019-05-29T11:12:39.574Z,101408.00
2019-05-29T11:13:37.149Z,103008.00
2019-05-29T11:14:37.162Z,103808.00
2019-05-29T11:15:37.177Z,102752.00
2019-05-29T11:16:39.739Z,102016.00
2019-05-29T11:17:37.201Z,86016.00
2019-05-29T11:18:37.233Z,33248.00
2019-05-29T11:19:37.232Z,7972.00
2019-05-29T11:20:37.250Z,6260.00
2019-05-29T11:21:37.265Z,5880.00
2019-05-29T11:22:37.273Z,5728.00
2019-05-29T11:23:37.305Z,5608.00
2019-05-29T11:24:37.332Z,5528.00
2019-05-29T11:25:37.303Z,5432.00
2019-05-29T11:26:37.320Z,5364.00
2019-05-29T11:27:37.329Z,5320.00
2019-05-29T11:28:37.333Z,5304.00
2019-05-29T11:29:37.341Z,5276.00
2019-05-29T11:30:37.356Z,5252.00
2019-05-29T11:31:37.358Z,5228.00
2019-05-29T11:32:37.365Z,5204.00
2019-05-29T11:33:37.374Z,5184.00
2019-05-29T11:34:37.380Z,5164.00
2019-05-29T11:35:37.390Z,5132.00
2019-05-29T11:36:37.393Z,5112.00
2019-05-29T11:37:37.395Z,5096.00
2019-05-29T11:38:37.404Z,5068.00
2019-05-29T11:39:37.406Z,5044.00
2019-05-29T11:40:37.975Z,5004.00
2019-05-29T11:41:37.422Z,4952.00
2019-05-29T11:42:37.426Z,4932.00
2019-05-29T11:43:37.428Z,4948.00
2019-05-29T11:44:37.438Z,4964.00
2019-05-29T11:45:37.532Z,4980.00
2019-05-29T11:46:37.442Z,4980.00
2019-05-29T11:47:37.447Z,4916.00
2019-05-29T11:48:37.446Z,4868.00
2019-05-29T11:49:37.449Z,4840.00
2019-05-29T11:50:37.454Z,4820.00
2019-05-29T11:51:37.459Z,4796.00
2019-05-29T11:52:42.878Z,4768.00
2019-05-29T11:53:37.469Z,4756.00
2019-05-29T11:54:37.471Z,4724.00
2019-05-29T11:55:37.472Z,4696.00
2019-05-29T11:56:37.471Z,4680.00
2019-05-29T11:57:39.594Z,4668.00
2019-05-29T11:58:37.479Z,4648.00
2019-05-29T11:59:37.496Z,4632.00
2019-05-29T12:00:37.477Z,4616.00
2019-05-29T12:01:49.638Z,4608.00
2019-05-29T12:02:37.490Z,4616.00
2019-05-29T12:03:58.094Z,4636.00
2019-05-29T12:04:37.492Z,4652.00
2019-05-29T12:05:37.494Z,4652.00
2019-05-29T12:06:37.497Z,4660.00
2019-05-29T12:07:37.502Z,4660.00
2019-05-29T12:08:37.570Z,4660.00
2019-05-29T12:09:37.534Z,4660.00
2019-05-29T12:10:37.493Z,4648.00
2019-05-29T12:11:37.496Z,4688.00
2019-05-29T12:12:37.500Z,4660.00